Time;durP1;ratioP1;P1;durP2;ratioP2;P2;SDS_P1;SDS_P2;PMS_P1;PMS_P2;Temp;Humidity;BMP_temperature;BMP_pressure;BME280_temperature;BME280_humidity;BME280_pressure;Samples;Min_cycle;Max_cycle;Signal;HPM_P1;HPM_P2
2021/06/09 00:02:12;;;;;;;1.90;1.37;;;20.10;83.40;;;;;;5075969;28;20537;-47
2021/06/09 00:04:45;;;;;;;1.77;1.43;;;20.20;82.80;;;;;;5080297;28;20503;-46
2021/06/09 00:07:15;;;;;;;2.60;1.20;;;20.20;81.80;;;;;;5080798;28;20444;-47
2021/06/09 00:09:45;;;;;;;1.60;1.07;;;20.10;83.30;;;;;;5080174;28;20573;-49
2021/06/09 00:12:16;;;;;;;2.50;1.20;;;19.90;84.80;;;;;;5081346;28;20448;-46
2021/06/09 00:14:46;;;;;;;0.97;0.93;;;19.90;86.70;;;;;;5079054;28;21185;-47
2021/06/09 00:17:17;;;;;;;3.40;0.97;;;19.90;87.00;;;;;;5075216;28;20446;-46
2021/06/09 00:19:49;;;;;;;1.00;0.90;;;19.90;88.40;;;;;;5080870;28;20446;-49
2021/06/09 00:22:20;;;;;;;1.43;1.10;;;19.90;90.00;;;;;;5081275;28;20570;-46
2021/06/09 00:24:50;;;;;;;1.50;1.40;;;19.80;86.50;;;;;;5079982;28;20490;-48
2021/06/09 00:27:21;;;;;;;1.00;0.80;;;19.60;86.60;;;;;;5081839;28;20475;-45
2021/06/09 00:29:51;;;;;;;4.60;1.20;;;19.40;87.00;;;;;;5081287;28;20971;-45
2021/06/09 00:32:22;;;;;;;0.70;0.70;;;19.60;86.80;;;;;;5081888;28;20497;-48
2021/06/09 00:34:54;;;;;;;0.70;0.70;;;19.70;85.50;;;;;;5080773;28;20446;-48
2021/06/09 00:37:24;;;;;;;2.20;0.73;;;19.70;84.40;;;;;;5080878;28;20509;-53
2021/06/09 00:39:55;;;;;;;1.90;1.10;;;19.80;85.20;;;;;;5080746;28;20870;-46
2021/06/09 00:42:25;;;;;;;1.17;0.57;;;19.80;84.30;;;;;;5080953;28;20813;-51
2021/06/09 00:44:57;;;;;;;0.67;0.63;;;19.80;84.10;;;;;;5069620;28;20538;-42
2021/06/09 00:47:28;;;;;;;2.63;0.60;;;19.80;84.80;;;;;;5091019;28;20447;-47
2021/06/09 00:50:00;;;;;;;0.80;0.50;;;19.80;85.40;;;;;;5079780;28;20822;-42
2021/06/09 00:52:31;;;;;;;1.40;0.93;;;19.70;83.20;;;;;;5067002;28;20929;-46
2021/06/09 00:55:02;;;;;;;1.40;0.67;;;19.40;84.80;;;;;;5062336;28;20448;-46
2021/06/09 00:57:33;;;;;;;0.50;0.47;;;19.40;85.80;;;;;;5070627;28;20542;-44
2021/06/09 01:00:07;;;;;;;0.60;0.57;;;19.60;86.20;;;;;;5071532;28;20482;-45
2021/06/09 01:02:38;;;;;;;0.60;0.60;;;19.60;84.10;;;;;;5074845;28;20457;-48
2021/06/09 01:05:11;;;;;;;0.77;0.77;;;19.40;84.00;;;;;;5065900;28;20608;-44
2021/06/09 01:07:42;;;;;;;1.73;1.27;;;19.30;83.20;;;;;;5067830;28;20456;-47
2021/06/09 01:10:12;;;;;;;1.20;0.90;;;19.00;85.40;;;;;;5064952;28;20495;-50
2021/06/09 01:12:43;;;;;;;0.70;0.70;;;19.00;85.50;;;;;;5066797;28;20459;-44
2021/06/09 01:15:15;;;;;;;0.90;0.70;;;19.10;85.40;;;;;;5070518;28;20445;-46
2021/06/09 01:17:45;;;;;;;1.33;0.63;;;19.20;85.00;;;;;;5079090;28;20876;-43
2021/06/09 01:20:19;;;;;;;1.33;0.73;;;19.30;83.40;;;;;;5083403;28;20447;-47
2021/06/09 01:22:52;;;;;;;0.40;0.40;;;19.00;83.50;;;;;;5083212;28;20453;-48
2021/06/09 01:25:24;;;;;;;0.80;0.60;;;19.10;84.00;;;;;;5082501;28;20861;-46
2021/06/09 01:27:54;;;;;;;1.40;0.67;;;19.30;84.50;;;;;;5073979;28;20467;-45
2021/06/09 01:30:25;;;;;;;0.83;0.63;;;19.30;84.50;;;;;;5078470;28;20530;-43
2021/06/09 01:32:56;;;;;;;1.43;0.80;;;19.10;84.50;;;;;;5082211;28;20510;-45
2021/06/09 01:35:26;;;;;;;1.00;0.60;;;19.30;85.00;;;;;;5082006;28;20482;-46
2021/06/09 01:37:59;;;;;;;1.00;0.70;;;19.30;84.20;;;;;;5084159;28;20447;-44
2021/06/09 01:40:30;;;;;;;1.47;1.10;;;19.40;83.80;;;;;;5082699;28;20448;-47
2021/06/09 01:43:02;;;;;;;1.77;1.10;;;19.50;83.50;;;;;;5072008;28;20470;-47
2021/06/09 01:45:36;;;;;;;1.07;0.60;;;19.30;84.30;;;;;;5083986;28;20548;-44
2021/06/09 01:48:08;;;;;;;1.67;0.80;;;19.20;85.20;;;;;;5085866;28;20496;-43
2021/06/09 01:50:39;;;;;;;1.27;0.70;;;19.10;86.00;;;;;;5084432;28;20883;-48
2021/06/09 01:53:12;;;;;;;1.63;1.10;;;19.20;84.00;;;;;;5084068;28;20501;-44
2021/06/09 01:55:42;;;;;;;0.90;0.80;;;19.30;83.70;;;;;;5079924;28;20459;-49
2021/06/09 01:58:13;;;;;;;0.83;0.83;;;19.30;81.20;;;;;;5084477;28;20464;-44
2021/06/09 02:00:46;;;;;;;1.10;0.80;;;19.50;81.40;;;;;;5083775;28;20443;-46
2021/06/09 02:03:17;;;;;;;0.73;0.73;;;19.50;77.80;;;;;;5081722;28;20432;-46
2021/06/09 02:05:48;;;;;;;1.67;1.10;;;19.40;78.20;;;;;;5083074;28;20483;-46
2021/06/09 02:08:20;;;;;;;1.03;0.73;;;19.50;77.20;;;;;;5072229;28;20765;-47
2021/06/09 02:10:51;;;;;;;0.97;0.57;;;19.40;77.60;;;;;;5081909;28;20463;-44
2021/06/09 02:13:23;;;;;;;1.00;0.70;;;19.30;76.90;;;;;;5083547;28;21181;-49
2021/06/09 02:15:56;;;;;;;0.87;0.73;;;19.20;78.60;;;;;;5083480;28;20478;-48
2021/06/09 02:18:27;;;;;;;0.97;0.93;;;19.20;78.90;;;;;;5084503;28;20418;-46
2021/06/09 02:20:59;;;;;;;0.70;0.70;;;19.30;79.10;;;;;;5083589;28;20452;-48
2021/06/09 02:23:34;;;;;;;2.03;0.90;;;19.10;78.70;;;;;;5083798;28;20817;-45
2021/06/09 02:26:05;;;;;;;1.00;0.77;;;19.10;78.70;;;;;;5082470;28;20517;-47
2021/06/09 02:28:35;;;;;;;1.27;0.83;;;19.10;79.10;;;;;;5083681;28;20440;-47
2021/06/09 02:31:06;;;;;;;1.33;0.77;;;19.00;80.70;;;;;;5083362;28;20418;-47
2021/06/09 02:33:37;;;;;;;0.80;0.80;;;19.00;79.40;;;;;;5079105;28;20793;-46
2021/06/09 02:36:08;;;;;;;1.90;0.80;;;19.00;79.90;;;;;;5080522;28;20464;-47
2021/06/09 02:38:41;;;;;;;1.30;0.70;;;18.80;80.70;;;;;;5081275;28;21024;-47
2021/06/09 02:41:12;;;;;;;0.93;0.90;;;18.70;80.40;;;;;;5080059;28;20468;-50
2021/06/09 02:43:45;;;;;;;1.63;0.80;;;18.60;80.30;;;;;;5080303;28;20418;-45
2021/06/09 02:46:37;;;;;;;2.20;1.10;;;18.50;80.10;;;;;;5075903;28;20495;-47
2021/06/09 02:49:12;;;;;;;0.73;0.60;;;18.50;80.80;;;;;;5084113;28;20501;-46
2021/06/09 02:51:45;;;;;;;1.63;0.90;;;18.40;80.60;;;;;;5084258;28;20474;-49
2021/06/09 02:54:25;;;;;;;1.33;0.70;;;18.40;80.40;;;;;;5077300;28;20430;-45
2021/06/09 02:57:03;;;;;;;0.83;0.70;;;18.20;82.90;;;;;;5082139;28;20824;-50
2021/06/09 02:59:50;;;;;;;0.83;0.60;;;18.30;81.20;;;;;;5082268;28;20422;-45
2021/06/09 03:02:28;;;;;;;2.80;1.10;;;18.30;81.10;;;;;;5081528;28;20447;-45
2021/06/09 03:05:02;;;;;;;1.63;0.90;;;18.20;81.30;;;;;;5078861;28;20463;-47
2021/06/09 03:07:40;;;;;;;1.33;0.93;;;18.10;81.80;;;;;;5082363;28;20524;-44
2021/06/09 03:10:19;;;;;;;1.50;0.60;;;18.00;81.20;;;;;;5081547;28;20439;-46
2021/06/09 03:13:01;;;;;;;0.93;0.70;;;18.00;82.60;;;;;;5081162;28;20461;-47
2021/06/09 03:15:41;;;;;;;1.57;0.50;;;17.90;81.40;;;;;;5082187;28;20425;-48
2021/06/09 03:18:19;;;;;;;0.70;0.60;;;17.90;81.60;;;;;;5080977;28;20448;-46
2021/06/09 03:20:55;;;;;;;0.70;0.70;;;17.90;83.70;;;;;;5081979;28;20514;-45
2021/06/09 03:23:46;;;;;;;1.43;0.60;;;17.70;85.10;;;;;;5078477;28;20455;-47
2021/06/09 03:26:26;;;;;;;0.80;0.80;;;17.60;85.50;;;;;;5078732;28;20462;-47
2021/06/09 03:29:02;;;;;;;1.73;0.90;;;17.60;86.10;;;;;;5082575;28;20545;-49
2021/06/09 03:31:38;;;;;;;0.87;0.83;;;17.50;87.40;;;;;;5083247;28;20459;-48
2021/06/09 03:34:16;;;;;;;3.37;0.97;;;17.40;87.50;;;;;;5081914;28;20463;-45
2021/06/09 03:36:49;;;;;;;1.70;0.90;;;17.20;88.30;;;;;;5077415;28;20463;-44
2021/06/09 03:39:22;;;;;;;0.70;0.60;;;17.20;88.90;;;;;;5073069;28;20467;-44
2021/06/09 03:41:57;;;;;;;0.87;0.80;;;17.10;88.80;;;;;;5071883;28;20438;-45
2021/06/09 03:44:32;;;;;;;2.67;0.70;;;17.10;87.50;;;;;;5070389;28;20608;-45
2021/06/09 03:47:04;;;;;;;1.00;0.90;;;17.10;86.10;;;;;;5082171;28;20970;-44
2021/06/09 03:49:36;;;;;;;2.10;0.87;;;17.10;86.80;;;;;;5081586;28;20440;-46
2021/06/09 03:52:09;;;;;;;0.70;0.50;;;17.00;84.90;;;;;;5080286;28;20598;-47
2021/06/09 03:54:45;;;;;;;1.77;0.70;;;17.00;84.80;;;;;;5069253;28;20469;-45
2021/06/09 03:57:18;;;;;;;1.30;0.57;;;17.00;86.10;;;;;;5081840;28;20989;-48
2021/06/09 03:59:49;;;;;;;0.73;0.63;;;16.80;89.60;;;;;;5080506;28;20471;-48
2021/06/09 04:02:21;;;;;;;1.50;0.60;;;16.70;89.10;;;;;;5079008;28;20447;-45
2021/06/09 04:04:54;;;;;;;1.00;0.80;;;16.70;90.10;;;;;;5080872;28;20546;-45
2021/06/09 04:07:26;;;;;;;1.20;0.70;;;16.70;90.80;;;;;;5072551;28;20495;-48
2021/06/09 04:09:59;;;;;;;0.87;0.67;;;16.60;90.90;;;;;;5080834;28;20482;-44
2021/06/09 04:12:32;;;;;;;1.20;0.83;;;16.60;91.20;;;;;;5074434;28;20447;-46
2021/06/09 04:15:04;;;;;;;1.13;0.70;;;16.60;91.30;;;;;;5081687;28;20456;-45
2021/06/09 04:17:37;;;;;;;1.27;0.87;;;16.60;91.70;;;;;;5082004;28;20757;-43
2021/06/09 04:20:09;;;;;;;1.60;1.00;;;16.50;92.30;;;;;;5080111;28;20700;-49
2021/06/09 04:22:39;;;;;;;0.80;0.80;;;16.50;92.50;;;;;;5075430;28;20456;-47
2021/06/09 04:25:11;;;;;;;1.93;1.00;;;16.40;93.60;;;;;;5080717;28;20444;-47
2021/06/09 04:27:44;;;;;;;2.70;1.33;;;16.40;93.80;;;;;;5081372;28;20490;-48
2021/06/09 04:30:17;;;;;;;1.30;1.20;;;16.40;94.20;;;;;;5081195;28;20471;-51
2021/06/09 04:32:56;;;;;;;0.90;0.90;;;16.30;94.70;;;;;;5078659;28;20443;-50
2021/06/09 04:35:29;;;;;;;1.87;1.30;;;16.30;95.40;;;;;;5084829;28;20435;-52
2021/06/09 04:38:00;;;;;;;1.17;1.07;;;16.20;94.80;;;;;;5085580;28;20508;-46
2021/06/09 04:40:31;;;;;;;1.00;1.00;;;16.30;94.10;;;;;;5083807;28;22314;-48
2021/06/09 04:43:03;;;;;;;1.53;1.10;;;16.30;94.00;;;;;;5073843;28;20447;-49
2021/06/09 04:45:35;;;;;;;0.80;0.77;;;16.30;94.20;;;;;;5085388;28;20479;-52
2021/06/09 04:48:11;;;;;;;1.10;0.97;;;16.20;94.40;;;;;;5085404;28;20494;-53
2021/06/09 04:50:42;;;;;;;1.80;0.93;;;16.10;95.30;;;;;;5085231;28;20496;-49
2021/06/09 04:53:13;;;;;;;1.10;0.70;;;16.10;95.70;;;;;;5072754;28;20457;-50
2021/06/09 04:55:45;;;;;;;1.10;1.00;;;16.10;95.80;;;;;;5084270;28;20459;-50
2021/06/09 04:58:19;;;;;;;1.23;1.10;;;16.10;96.20;;;;;;5079116;28;20451;-45
2021/06/09 05:00:51;;;;;;;1.27;1.17;;;16.10;97.00;;;;;;5084535;28;20478;-46
2021/06/09 05:03:21;;;;;;;3.30;1.30;;;16.00;97.50;;;;;;5082879;28;20572;-49
2021/06/09 05:05:52;;;;;;;1.40;1.30;;;16.00;98.40;;;;;;5084734;28;20467;-47
2021/06/09 05:08:23;;;;;;;1.33;0.90;;;15.90;99.00;;;;;;5088474;28;20540;-46
2021/06/09 05:10:53;;;;;;;1.63;1.37;;;15.90;99.80;;;;;;5083100;28;20475;-46
2021/06/09 05:13:30;;;;;;;3.10;1.30;;;15.90;99.90;;;;;;5081830;28;20451;-45
2021/06/09 05:16:05;;;;;;;1.23;1.13;;;15.80;99.90;;;;;;5084239;28;20502;-45
2021/06/09 05:18:41;;;;;;;1.57;1.20;;;15.80;99.90;;;;;;5084698;28;20451;-47
2021/06/09 05:21:12;;;;;;;1.23;1.13;;;15.80;99.90;;;;;;5084966;28;20750;-48
2021/06/09 05:23:46;;;;;;;1.70;1.23;;;15.60;98.90;;;;;;5084835;28;20501;-47
2021/06/09 05:26:17;;;;;;;1.10;1.00;;;15.50;98.50;;;;;;5083579;28;20479;-46
2021/06/09 05:28:54;;;;;;;2.10;1.10;;;15.40;99.10;;;;;;5084894;28;20448;-46
2021/06/09 05:31:27;;;;;;;3.00;1.00;;;15.40;98.80;;;;;;5084854;28;20503;-49
2021/06/09 05:33:58;;;;;;;1.30;1.00;;;15.30;99.00;;;;;;5082947;28;20440;-47
2021/06/09 05:36:29;;;;;;;1.63;1.00;;;15.30;99.60;;;;;;5084866;28;20450;-47
2021/06/09 05:39:00;;;;;;;1.50;1.03;;;15.30;99.50;;;;;;5083615;28;20569;-47
2021/06/09 05:41:31;;;;;;;1.80;1.20;;;15.30;99.00;;;;;;5084858;28;20455;-45
2021/06/09 05:44:04;;;;;;;2.10;1.10;;;15.30;98.80;;;;;;5084229;28;20447;-48
2021/06/09 05:46:34;;;;;;;1.17;0.93;;;15.30;99.10;;;;;;5083536;28;20500;-46
2021/06/09 05:49:05;;;;;;;1.43;1.10;;;15.20;99.80;;;;;;5083333;28;20502;-47
2021/06/09 05:51:36;;;;;;;2.63;1.20;;;15.10;99.90;;;;;;5085108;28;20473;-46
2021/06/09 05:54:06;;;;;;;1.80;0.97;;;15.00;99.90;;;;;;5082718;28;20479;-51
2021/06/09 05:56:37;;;;;;;1.20;1.00;;;14.90;99.90;;;;;;5084575;28;20497;-47
2021/06/09 05:59:10;;;;;;;1.43;1.33;;;14.80;99.90;;;;;;5083479;28;20440;-46
2021/06/09 06:01:40;;;;;;;1.93;1.10;;;14.70;99.90;;;;;;5084177;28;20451;-45
2021/06/09 06:04:12;;;;;;;3.13;1.23;;;14.60;99.90;;;;;;5083175;28;20444;-48
2021/06/09 06:06:43;;;;;;;2.90;1.37;;;14.60;99.90;;;;;;5082872;28;20873;-48
2021/06/09 06:09:13;;;;;;;1.63;1.30;;;14.40;99.90;;;;;;5082344;28;20479;-49
2021/06/09 06:11:44;;;;;;;1.67;1.40;;;14.30;99.90;;;;;;5077281;28;20484;-45
2021/06/09 06:14:17;;;;;;;1.40;1.30;;;14.30;99.90;;;;;;5077012;28;20451;-45
2021/06/09 06:16:54;;;;;;;1.40;1.30;;;14.30;99.90;;;;;;5083656;28;20474;-47
2021/06/09 06:19:33;;;;;;;1.47;1.30;;;14.30;99.90;;;;;;5083246;28;20473;-47
2021/06/09 06:22:09;;;;;;;1.43;1.33;;;14.20;99.90;;;;;;5083791;28;20435;-47
2021/06/09 06:24:42;;;;;;;1.40;1.10;;;14.10;99.90;;;;;;5082658;28;20447;-46
2021/06/09 06:27:13;;;;;;;1.70;1.30;;;14.10;99.90;;;;;;5083582;28;20483;-48
2021/06/09 06:29:46;;;;;;;1.57;1.40;;;14.00;99.90;;;;;;5082875;28;20447;-46
2021/06/09 06:32:17;;;;;;;2.00;1.37;;;13.90;99.90;;;;;;5083842;28;20451;-47
2021/06/09 06:34:50;;;;;;;1.70;1.20;;;13.80;99.90;;;;;;5082126;28;20448;-48
2021/06/09 06:37:24;;;;;;;1.53;1.23;;;13.80;99.90;;;;;;5084005;28;20521;-46
2021/06/09 06:39:55;;;;;;;3.73;2.13;;;13.80;99.90;;;;;;5082467;28;20995;-49
2021/06/09 06:42:26;;;;;;;1.20;1.10;;;13.70;99.90;;;;;;5083469;28;20455;-49
2021/06/09 06:45:00;;;;;;;1.40;1.30;;;13.80;99.90;;;;;;5081872;28;20498;-46
2021/06/09 06:47:31;;;;;;;2.50;1.67;;;13.80;99.90;;;;;;5072254;28;20544;-45
2021/06/09 06:50:02;;;;;;;2.07;1.67;;;13.90;99.90;;;;;;5082918;28;20451;-46
2021/06/09 06:52:33;;;;;;;1.80;1.50;;;13.90;99.90;;;;;;5083543;28;20436;-46
2021/06/09 06:55:07;;;;;;;1.70;1.60;;;13.90;99.90;;;;;;5081801;28;20448;-47
2021/06/09 06:57:38;;;;;;;3.17;1.80;;;13.90;99.90;;;;;;5067428;28;20455;-47
2021/06/09 07:00:12;;;;;;;1.77;1.60;;;13.80;99.90;;;;;;5082753;28;20455;-45
2021/06/09 07:02:47;;;;;;;2.80;1.73;;;13.80;99.90;;;;;;5082191;28;20451;-48
2021/06/09 07:05:20;;;;;;;2.57;1.90;;;13.80;99.90;;;;;;5079952;28;20450;-45
2021/06/09 07:07:52;;;;;;;3.30;2.10;;;13.80;99.90;;;;;;5083679;28;20570;-47
2021/06/09 07:10:23;;;;;;;1.90;1.53;;;13.70;99.90;;;;;;5081866;28;20431;-46
2021/06/09 07:12:59;;;;;;;3.40;2.00;;;13.80;99.90;;;;;;5069618;28;20451;-49
2021/06/09 07:15:33;;;;;;;2.40;1.93;;;13.80;99.90;;;;;;5082833;28;20458;-48
2021/06/09 07:18:04;;;;;;;3.17;2.13;;;13.80;99.90;;;;;;5082555;28;20447;-50
2021/06/09 07:20:35;;;;;;;2.33;2.13;;;13.80;99.90;;;;;;5082436;28;20479;-52
2021/06/09 07:23:05;;;;;;;1.93;1.80;;;13.80;99.90;;;;;;5083336;28;20448;-50
2021/06/09 07:25:36;;;;;;;1.90;1.80;;;13.70;99.90;;;;;;5081600;28;20502;-50
2021/06/09 07:28:08;;;;;;;2.03;1.80;;;13.60;99.90;;;;;;5083158;28;20495;-46
2021/06/09 07:30:41;;;;;;;3.23;1.63;;;13.50;99.90;;;;;;5081741;28;20467;-45
2021/06/09 07:33:12;;;;;;;3.10;2.10;;;13.40;99.90;;;;;;5082500;28;20525;-45
2021/06/09 07:35:43;;;;;;;2.20;1.90;;;13.30;99.90;;;;;;5081353;28;20972;-45
2021/06/09 07:38:21;;;;;;;3.30;2.30;;;13.30;99.90;;;;;;5069254;28;20532;-46
2021/06/09 07:40:55;;;;;;;1.97;1.77;;;13.20;99.90;;;;;;5081171;28;20576;-47
2021/06/09 07:43:29;;;;;;;2.00;1.80;;;13.10;99.90;;;;;;5082602;28;20486;-46
2021/06/09 07:46:02;;;;;;;3.17;2.43;;;13.00;99.90;;;;;;5081852;28;20484;-47
2021/06/09 07:48:34;;;;;;;2.50;2.00;;;13.10;99.90;;;;;;5082370;28;20669;-45
2021/06/09 07:51:08;;;;;;;2.27;1.83;;;13.20;99.90;;;;;;5082036;28;20452;-48
2021/06/09 07:53:40;;;;;;;2.20;2.00;;;13.20;99.90;;;;;;5082306;28;20467;-45
2021/06/09 07:56:15;;;;;;;2.70;1.60;;;13.30;99.90;;;;;;5081397;28;20444;-47
2021/06/09 07:58:47;;;;;;;2.10;1.60;;;13.30;99.90;;;;;;5081573;28;20475;-49
2021/06/09 08:01:20;;;;;;;3.30;1.70;;;13.30;99.90;;;;;;5081609;28;20485;-46
2021/06/09 08:03:51;;;;;;;1.43;1.33;;;13.30;99.90;;;;;;5076374;28;20452;-49
2021/06/09 08:06:24;;;;;;;2.17;1.97;;;13.30;99.90;;;;;;5074166;28;20444;-45
2021/06/09 08:08:54;;;;;;;4.50;1.80;;;13.40;99.90;;;;;;5084967;28;20475;-46
2021/06/09 08:11:24;;;;;;;2.73;1.80;;;13.20;99.90;;;;;;5085932;28;20447;-46
2021/06/09 08:13:55;;;;;;;3.63;1.87;;;13.10;99.90;;;;;;5086168;28;20455;-46
2021/06/09 08:16:28;;;;;;;2.13;1.90;;;13.20;99.90;;;;;;5086649;28;20459;-52
2021/06/09 08:19:03;;;;;;;1.97;1.60;;;13.30;99.90;;;;;;5085594;28;20456;-45
2021/06/09 08:21:35;;;;;;;2.50;2.00;;;13.30;99.90;;;;;;5085350;28;20458;-48
2021/06/09 08:24:07;;;;;;;3.20;2.10;;;13.30;99.90;;;;;;5082501;28;20460;-49
2021/06/09 08:26:37;;;;;;;1.90;1.80;;;13.40;99.90;;;;;;5086213;28;20776;-46
2021/06/09 08:29:08;;;;;;;2.50;1.80;;;13.40;99.90;;;;;;5085505;28;20526;-47
2021/06/09 08:31:40;;;;;;;2.23;1.53;;;13.20;99.90;;;;;;5085920;28;20475;-45
2021/06/09 08:34:11;;;;;;;3.73;1.50;;;13.20;99.90;;;;;;5084833;28;20455;-46
2021/06/09 08:36:44;;;;;;;1.90;1.70;;;13.00;99.90;;;;;;5085258;28;20489;-45
2021/06/09 08:39:14;;;;;;;2.23;2.03;;;13.00;99.90;;;;;;5084875;28;20439;-48
2021/06/09 08:41:46;;;;;;;4.73;1.63;;;13.00;99.90;;;;;;5086359;28;20451;-46
2021/06/09 08:44:18;;;;;;;2.20;2.00;;;13.00;99.90;;;;;;5084955;28;20471;-45
2021/06/09 08:46:53;;;;;;;1.50;1.40;;;13.00;99.90;;;;;;5085876;28;20462;-50
2021/06/09 08:49:24;;;;;;;2.70;2.10;;;12.90;99.90;;;;;;5085779;28;20522;-51
2021/06/09 08:51:55;;;;;;;2.03;1.53;;;12.80;99.90;;;;;;5085518;28;20488;-47
2021/06/09 08:54:27;;;;;;;4.70;2.20;;;12.90;99.90;;;;;;5084559;28;20463;-45
2021/06/09 08:56:58;;;;;;;1.60;1.50;;;12.90;99.90;;;;;;5085716;28;20435;-45
2021/06/09 08:59:29;;;;;;;2.73;1.83;;;12.90;99.90;;;;;;5074080;28;20519;-47
2021/06/09 09:02:01;;;;;;;2.60;1.70;;;12.90;99.90;;;;;;5084607;28;20467;-44
2021/06/09 09:04:34;;;;;;;4.30;2.00;;;12.90;99.90;;;;;;5084744;28;20797;-47
2021/06/09 09:07:06;;;;;;;1.80;1.70;;;12.80;99.90;;;;;;5085820;28;20806;-47
2021/06/09 09:09:37;;;;;;;3.50;1.70;;;12.80;99.90;;;;;;5084656;28;20467;-46
2021/06/09 09:12:11;;;;;;;2.67;1.40;;;12.90;99.90;;;;;;5084606;28;20459;-46
2021/06/09 09:14:42;;;;;;;3.43;1.80;;;13.00;99.90;;;;;;5084413;28;20481;-45
2021/06/09 09:17:15;;;;;;;3.40;1.80;;;12.90;99.90;;;;;;5085258;28;20470;-47
2021/06/09 09:19:46;;;;;;;1.40;1.30;;;13.00;99.90;;;;;;5083932;28;20519;-47
2021/06/09 09:22:21;;;;;;;2.10;1.63;;;12.90;99.90;;;;;;5085157;28;20545;-46
2021/06/09 09:24:52;;;;;;;1.93;1.70;;;12.80;99.90;;;;;;5084385;28;21068;-45
2021/06/09 09:27:28;;;;;;;1.77;1.67;;;12.80;99.90;;;;;;5085181;28;20443;-45
2021/06/09 09:30:04;;;;;;;1.63;1.40;;;12.90;99.90;;;;;;5084863;28;20466;-44
2021/06/09 09:32:38;;;;;;;2.30;2.10;;;12.80;99.90;;;;;;5084171;28;20471;-48
2021/06/09 09:35:11;;;;;;;4.27;1.77;;;12.70;99.90;;;;;;5074361;28;20505;-48
2021/06/09 09:37:42;;;;;;;3.97;2.30;;;12.60;99.90;;;;;;5084927;28;20460;-44
2021/06/09 09:40:16;;;;;;;1.90;1.80;;;12.60;99.90;;;;;;5083794;28;20444;-47
2021/06/09 09:42:48;;;;;;;2.90;1.77;;;12.40;99.90;;;;;;5084589;28;20448;-46
2021/06/09 09:45:27;;;;;;;2.80;1.60;;;12.40;99.90;;;;;;5084436;28;20555;-47
2021/06/09 09:48:13;;;;;;;4.40;1.53;;;12.30;99.90;;;;;;5085027;28;20519;-49
2021/06/09 09:50:46;;;;;;;4.20;2.60;;;12.20;99.90;;;;;;5084494;28;20451;-44
2021/06/09 09:53:19;;;;;;;3.40;1.80;;;12.10;99.90;;;;;;5068695;28;20829;-45
2021/06/09 09:56:08;;;;;;;4.27;1.80;;;12.10;99.90;;;;;;5083719;28;20205;-44
2021/06/09 09:58:40;;;;;;;2.20;1.95;;;12.00;99.90;;;;;;5084953;28;20455;-45
2021/06/09 10:01:16;;;;;;;2.83;2.10;;;12.00;99.90;;;;;;5084063;28;20197;-45
2021/06/09 10:03:52;;;;;;;5.13;2.05;;;11.90;99.90;;;;;;5075935;28;20205;-45
2021/06/09 10:06:34;;;;;;;2.35;1.70;;;11.80;99.90;;;;;;5081182;28;20236;-46
2021/06/09 10:09:16;;;;;;;2.00;1.70;;;11.80;99.90;;;;;;5083486;28;20247;-48
2021/06/09 10:11:48;;;;;;;2.60;1.98;;;11.80;99.90;;;;;;5084468;28;20205;-45
2021/06/09 10:14:24;;;;;;;3.78;2.05;;;11.70;99.90;;;;;;5084494;28;20303;-45
2021/06/09 10:17:02;;;;;;;2.97;1.63;;;11.70;99.90;;;;;;5084274;28;20201;-44
2021/06/09 10:19:36;;;;;;;6.30;2.22;;;11.70;99.90;;;;;;5074626;28;20687;-45
2021/06/09 10:22:08;;;;;;;4.53;1.85;;;11.70;99.90;;;;;;5084202;28;20248;-47
2021/06/09 10:24:50;;;;;;;1.90;1.80;;;11.70;99.90;;;;;;5083379;28;20233;-46
2021/06/09 10:27:33;;;;;;;1.92;1.83;;;11.60;99.90;;;;;;5084426;28;20206;-50
2021/06/09 10:30:04;;;;;;;3.13;1.60;;;11.50;99.90;;;;;;5083875;28;20251;-47
2021/06/09 10:32:34;;;;;;;2.47;2.10;;;11.50;99.90;;;;;;5083238;28;20236;-47
2021/06/09 10:35:10;;;;;;;3.03;1.73;;;11.30;99.90;;;;;;5083905;28;20200;-45
2021/06/09 10:37:41;;;;;;;5.05;1.65;;;11.30;99.90;;;;;;5084542;28;20205;-46
2021/06/09 10:40:15;;;;;;;2.53;1.55;;;11.30;99.90;;;;;;5082146;28;20220;-45
2021/06/09 10:42:48;;;;;;;2.47;1.98;;;11.30;99.90;;;;;;5083095;28;20238;-45
2021/06/09 10:45:22;;;;;;;5.43;2.30;;;11.30;99.90;;;;;;5082878;28;20756;-46
2021/06/09 10:47:57;;;;;;;3.05;1.80;;;11.40;99.90;;;;;;5084074;28;20216;-45
2021/06/09 10:50:29;;;;;;;4.22;1.70;;;11.30;99.90;;;;;;5083711;28;20196;-45
2021/06/09 10:53:05;;;;;;;3.00;1.85;;;11.30;99.90;;;;;;5079445;28;20193;-50
2021/06/09 10:55:36;;;;;;;1.42;1.33;;;11.30;99.90;;;;;;5082711;28;20217;-45
2021/06/09 10:58:07;;;;;;;2.50;1.80;;;11.20;99.90;;;;;;5083784;28;20241;-45
2021/06/09 11:00:39;;;;;;;2.33;1.55;;;11.20;99.90;;;;;;5082516;28;20284;-47
2021/06/09 11:03:09;;;;;;;3.05;2.15;;;11.20;99.90;;;;;;5083472;28;20205;-45
2021/06/09 11:05:42;;;;;;;2.30;2.13;;;11.20;99.90;;;;;;5083683;28;20516;-46
2021/06/09 11:08:16;;;;;;;3.65;2.08;;;11.30;99.90;;;;;;5096659;28;20497;-48
2021/06/09 11:10:48;;;;;;;1.88;1.77;;;11.30;99.90;;;;;;5082397;28;20237;-47
2021/06/09 11:13:32;;;;;;;4.30;1.88;;;11.30;99.90;;;;;;5082895;28;20232;-46
2021/06/09 11:16:10;;;;;;;2.15;1.95;;;11.30;99.90;;;;;;5083066;28;20224;-47
2021/06/09 11:18:42;;;;;;;2.45;1.70;;;11.40;99.90;;;;;;5083431;28;20205;-47
2021/06/09 11:21:16;;;;;;;2.60;1.90;;;11.30;99.90;;;;;;5082322;28;20201;-47
2021/06/09 11:23:50;;;;;;;2.35;2.15;;;11.30;99.90;;;;;;5083236;28;20296;-47
2021/06/09 11:26:29;;;;;;;1.87;1.70;;;11.20;99.90;;;;;;5082532;28;20236;-50
2021/06/09 11:28:59;;;;;;;3.65;1.90;;;11.10;99.90;;;;;;5082605;28;20569;-52
2021/06/09 11:31:31;;;;;;;1.80;1.70;;;11.10;99.90;;;;;;5082417;28;20194;-51
2021/06/09 11:34:03;;;;;;;4.15;2.45;;;11.10;99.90;;;;;;5081803;28;20653;-47
2021/06/09 11:36:44;;;;;;;2.42;2.17;;;10.90;99.90;;;;;;5081360;28;20216;-50
2021/06/09 11:39:25;;;;;;;1.98;1.88;;;10.90;99.90;;;;;;5081696;28;20197;-48
2021/06/09 11:41:56;;;;;;;4.65;2.10;;;10.90;99.90;;;;;;5082933;28;20193;-45
2021/06/09 11:44:34;;;;;;;2.42;1.85;;;10.80;99.90;;;;;;5082024;28;20292;-46
2021/06/09 11:47:24;;;;;;;2.20;2.00;;;10.70;99.90;;;;;;5067806;28;20197;-46
2021/06/09 11:50:15;;;;;;;3.25;1.90;;;10.70;99.90;;;;;;5082377;28;20667;-46
2021/06/09 11:53:12;;;;;;;2.50;2.22;;;10.70;99.90;;;;;;5080591;28;20201;-49
2021/06/09 11:55:43;;;;;;;3.50;2.05;;;10.50;99.90;;;;;;5080892;28;20200;-45
2021/06/09 11:58:15;;;;;;;1.90;1.80;;;10.50;99.90;;;;;;5083142;28;20229;-45
2021/06/09 12:01:13;;;;;;;2.33;2.13;;;10.50;99.90;;;;;;5078471;28;20755;-45
2021/06/09 12:03:44;;;;;;;2.13;1.65;;;10.40;99.90;;;;;;5040475;28;20206;-45
2021/06/09 12:06:19;;;;;;;2.85;1.73;;;10.40;99.90;;;;;;5040171;28;20199;-46
2021/06/09 12:08:52;;;;;;;2.60;1.70;;;10.20;99.90;;;;;;5026402;28;20225;-46
2021/06/09 12:11:23;;;;;;;2.30;1.77;;;10.20;99.90;;;;;;5039530;28;20238;-46
2021/06/09 12:13:53;;;;;;;3.97;1.88;;;10.20;99.90;;;;;;5040495;28;20219;-44
2021/06/09 12:16:26;;;;;;;2.22;2.03;;;10.20;99.90;;;;;;5040175;28;20238;-45
2021/06/09 12:18:57;;;;;;;2.25;1.98;;;10.20;99.90;;;;;;5040129;28;20206;-45
2021/06/09 12:21:27;;;;;;;2.00;1.90;;;10.00;99.90;;;;;;5039774;28;20204;-47
2021/06/09 12:24:00;;;;;;;3.03;2.05;;;10.00;99.90;;;;;;5039869;28;20266;-50
2021/06/09 12:26:31;;;;;;;3.47;2.42;;;9.90;99.90;;;;;;5040043;28;20266;-45
2021/06/09 12:29:02;;;;;;;4.70;2.50;;;9.90;99.90;;;;;;5040312;28;20222;-46
2021/06/09 12:31:36;;;;;;;4.18;2.15;;;10.00;99.90;;;;;;5040463;28;20690;-48
2021/06/09 12:34:07;;;;;;;2.10;2.00;;;10.00;99.90;;;;;;5039295;28;20213;-46
2021/06/09 12:36:56;;;;;;;2.55;2.38;;;10.00;99.90;;;;;;5040264;28;20694;-49
2021/06/09 12:39:28;;;;;;;6.35;2.78;;;9.90;99.90;;;;;;5060405;28;20212;-46
2021/06/09 12:42:00;;;;;;;2.10;1.90;;;9.90;99.90;;;;;;5083079;28;20233;-46
2021/06/09 12:44:31;;;;;;;2.15;1.80;;;9.90;99.90;;;;;;5081602;28;20225;-44
2021/06/09 12:47:02;;;;;;;3.13;1.92;;;9.90;99.90;;;;;;5081887;28;20201;-44
2021/06/09 12:49:34;;;;;;;2.50;2.30;;;9.90;99.90;;;;;;5081618;28;20251;-46
2021/06/09 12:52:08;;;;;;;4.13;2.20;;;9.90;99.90;;;;;;5081695;28;20283;-47
2021/06/09 12:54:52;;;;;;;2.40;2.13;;;9.80;99.90;;;;;;5081904;28;20201;-46
2021/06/09 12:57:33;;;;;;;2.60;2.10;;;9.90;99.90;;;;;;5086369;28;20201;-44
2021/06/09 13:00:18;;;;;;;2.28;2.08;;;9.80;99.90;;;;;;5084356;28;20306;-45
2021/06/09 13:02:49;;;;;;;2.80;2.05;;;9.90;99.90;;;;;;5085910;28;20229;-45
2021/06/09 13:05:20;;;;;;;1.75;1.65;;;9.90;99.90;;;;;;5084926;28;20232;-46
2021/06/09 13:07:51;;;;;;;2.42;1.90;;;9.80;99.90;;;;;;5095638;28;20205;-45
2021/06/09 13:10:24;;;;;;;2.75;1.90;;;9.90;99.90;;;;;;5083806;28;20217;-45
2021/06/09 13:12:54;;;;;;;3.45;2.35;;;9.90;99.90;;;;;;5085707;28;20193;-44
2021/06/09 13:15:25;;;;;;;3.10;2.42;;;9.90;99.90;;;;;;5084920;28;20225;-44
2021/06/09 13:17:56;;;;;;;2.80;1.75;;;9.90;99.90;;;;;;5085088;28;20193;-47
2021/06/09 13:20:29;;;;;;;3.10;2.53;;;9.90;99.90;;;;;;5085233;28;20637;-47